createdAt,value
2023-07-03T00:05:52.141Z,19.4
2023-07-03T00:14:07.757Z,19.4
2023-07-03T00:30:38.967Z,19.3
2023-07-03T00:38:54.583Z,19.3
2023-07-03T00:47:10.296Z,19.3
2023-07-03T00:55:25.794Z,19.2
2023-07-03T01:03:41.417Z,19.2
2023-07-03T01:20:12.649Z,19.2
2023-07-03T01:28:28.282Z,19.2
2023-07-03T01:36:43.877Z,19.2
2023-07-03T01:44:59.497Z,19.1
2023-07-03T01:53:15.123Z,19
2023-07-03T02:01:30.708Z,19
2023-07-03T02:09:46.313Z,19.1
2023-07-03T02:18:01.908Z,19.1
2023-07-03T02:26:17.500Z,18.9
2023-07-03T02:34:33.101Z,18.8
2023-07-03T02:42:48.688Z,18.8
2023-07-03T02:51:04.364Z,18.8
2023-07-03T02:59:19.876Z,18.6
2023-07-03T03:07:35.443Z,18.5
2023-07-03T03:15:51.067Z,18.4
2023-07-03T03:24:06.660Z,18.4
2023-07-03T03:32:22.241Z,18.4
2023-07-03T03:40:37.886Z,18.5
2023-07-03T03:48:53.460Z,18.4
2023-07-03T03:57:09.081Z,18.5
2023-07-03T04:05:24.512Z,18.4
2023-07-03T04:13:40.157Z,18.4
2023-07-03T04:21:55.773Z,18.4
2023-07-03T04:30:11.280Z,18.4
2023-07-03T04:38:26.869Z,18.4
2023-07-03T04:54:56.025Z,18.7
2023-07-03T05:03:13.662Z,18.8
2023-07-03T05:11:29.316Z,18.9
2023-07-03T05:19:44.848Z,19
2023-07-03T05:28:00.558Z,19.1
2023-07-03T05:36:16.039Z,19.1
2023-07-03T05:44:31.657Z,19.2
2023-07-03T05:52:47.357Z,19.1
2023-07-03T06:01:02.881Z,19.2
2023-07-03T06:09:18.490Z,19.3
2023-07-03T06:17:34.130Z,19.5
2023-07-03T06:25:49.721Z,19.6
2023-07-03T06:34:05.402Z,19.8
2023-07-03T06:42:21.039Z,19.8
2023-07-03T06:50:36.679Z,19.8
2023-07-03T06:58:52.360Z,20.2
2023-07-03T07:07:07.888Z,20.6
2023-07-03T07:15:23.574Z,21.5
2023-07-03T07:23:39.286Z,25
2023-07-03T07:31:55.100Z,25.8
2023-07-03T07:40:10.919Z,25.2
2023-07-03T07:48:26.567Z,25.1
2023-07-03T08:04:58.087Z,24.7
2023-07-03T08:13:14.014Z,25
2023-07-03T08:21:29.784Z,25.7
2023-07-03T08:29:45.538Z,26.6
2023-07-03T08:38:01.401Z,26.4
2023-07-03T08:46:17.367Z,27.8
2023-07-03T08:54:33.247Z,27.5
2023-07-03T09:02:49.319Z,27.8
2023-07-03T09:11:05.449Z,28.5
2023-07-03T09:19:21.617Z,29.5
2023-07-03T09:27:38.104Z,28.5
2023-07-03T09:44:10.821Z,28.6
2023-07-03T09:52:27.343Z,28.3
2023-07-03T10:00:43.804Z,27.6
2023-07-03T10:09:00.392Z,27.5
2023-07-03T10:17:17.216Z,27.3
2023-07-03T10:25:33.676Z,26.4
2023-07-03T10:33:50.053Z,25.8
2023-07-03T10:50:22.075Z,26.1
2023-07-03T11:06:50.842Z,24.7
2023-07-03T11:15:09.851Z,25
2023-07-03T11:23:25.558Z,25
2023-07-03T11:31:41.547Z,24.5
2023-07-03T11:48:12.990Z,24.4
2023-07-03T12:21:13.111Z,24.3
2023-07-03T13:02:32.106Z,23.8
2023-07-03T13:10:50.809Z,23.5
2023-07-03T13:19:17.976Z,23.5
2023-07-03T13:27:22.448Z,23.9
2023-07-03T14:33:39.653Z,23.6
2023-07-03T14:41:44.038Z,23.7
2023-07-03T14:58:12.571Z,24
2023-07-03T15:06:31.236Z,24
2023-07-03T15:14:46.960Z,23.9
2023-07-03T15:31:18.444Z,23.9
2023-07-03T15:39:34.187Z,23.7
2023-07-03T15:56:02.636Z,23.7
2023-07-03T16:04:21.407Z,23.6
2023-07-03T16:12:37.135Z,23.7
2023-07-03T17:02:08.441Z,22.9
2023-07-03T17:10:27.176Z,22.8
2023-07-03T17:18:42.895Z,23
2023-07-03T17:26:58.598Z,23
2023-07-03T17:35:14.311Z,22.9
2023-07-03T17:51:42.710Z,22.9
2023-07-03T18:00:01.419Z,22.8
2023-07-03T18:08:17.134Z,22.7
2023-07-03T18:16:32.841Z,22.7
2023-07-03T18:24:48.523Z,22.7
2023-07-03T18:33:04.254Z,22.5
2023-07-03T18:41:19.953Z,22.4
2023-07-03T18:49:35.626Z,22
2023-07-03T18:57:51.330Z,21.9
2023-07-03T19:06:07.062Z,21.8
2023-07-03T19:14:22.737Z,21.6
2023-07-03T19:22:38.334Z,21.6
2023-07-03T19:30:53.972Z,20.9
2023-07-03T19:39:09.641Z,19.3
2023-07-03T19:47:25.295Z,19.4
2023-07-03T19:55:40.947Z,19.5
2023-07-03T20:03:56.656Z,19.6
2023-07-03T20:12:12.278Z,19.7
2023-07-03T20:20:27.932Z,20.2
2023-07-03T20:28:43.578Z,20.4
2023-07-03T20:36:59.220Z,20.3
2023-07-03T20:45:14.875Z,20.1
2023-07-03T20:53:30.512Z,20.1
2023-07-03T21:01:46.175Z,20
2023-07-03T21:10:01.924Z,20
2023-07-03T21:18:17.480Z,19.9
2023-07-03T21:26:33.143Z,19.8
2023-07-03T21:34:48.757Z,19.9
2023-07-03T21:43:04.406Z,19.9
2023-07-03T21:51:20.060Z,19.8
2023-07-03T21:59:35.712Z,19.9
2023-07-03T22:07:51.323Z,19.9
2023-07-03T22:16:06.946Z,19.9
2023-07-03T22:24:22.588Z,19.8
2023-07-03T22:32:38.225Z,19.8
2023-07-03T22:40:53.884Z,19.7
2023-07-03T22:49:09.518Z,19.6
2023-07-03T22:57:25.156Z,19.6
2023-07-03T23:05:40.828Z,19.6
2023-07-03T23:13:56.437Z,19.5
2023-07-03T23:22:12.193Z,19.4
2023-07-03T23:30:27.673Z,19.4
2023-07-03T23:38:43.398Z,19.6
2023-07-03T23:55:11.556Z,19.9
